Time;durP1;ratioP1;P1;durP2;ratioP2;P2;SDS_P1;SDS_P2;PMS_P1;PMS_P2;Temp;Humidity;BMP_temperature;BMP_pressure;BME280_temperature;BME280_humidity;BME280_pressure;Samples;Min_cycle;Max_cycle;Signal;HPM_P1;HPM_P2
2023/01/03 00:01:27;;;;;;;15.02;9.73;;;;;;;19.61;52.87;102411.47;5030939;28;20411;-54
2023/01/03 00:03:56;;;;;;;13.23;8.02;;;;;;;19.62;53.12;102406.94;5035748;28;20045;-56
2023/01/03 00:06:29;;;;;;;15.48;9.75;;;;;;;19.63;53.09;102401.47;5035056;28;20399;-55
2023/01/03 00:08:58;;;;;;;14.48;9.23;;;;;;;19.65;53.28;102409.44;5034828;28;20406;-57
2023/01/03 00:14:18;;;;;;;12.70;9.63;;;;;;;19.65;53.29;102404.06;5034891;28;20057;-55
2023/01/03 00:16:49;;;;;;;15.00;10.77;;;;;;;19.64;53.21;102395.13;5028812;28;20057;-52
2023/01/03 00:19:18;;;;;;;13.18;9.23;;;;;;;19.65;53.66;102396.88;5015524;28;20046;-57
2023/01/03 00:21:45;;;;;;;16.33;10.50;;;;;;;19.66;53.47;102400.41;5016246;28;20041;-55
2023/01/03 00:24:14;;;;;;;16.48;10.52;;;;;;;19.66;53.39;102400.41;5029780;28;20146;-53
2023/01/03 00:26:41;;;;;;;16.80;10.52;;;;;;;19.66;53.44;102412.03;5034909;28;20045;-53
2023/01/03 00:29:10;;;;;;;14.45;10.40;;;;;;;19.65;53.26;102410.31;5034574;28;20049;-54
2023/01/03 00:31:38;;;;;;;14.95;10.32;;;;;;;19.65;53.48;102409.44;5034512;28;20041;-54
2023/01/03 00:34:06;;;;;;;13.48;9.52;;;;;;;19.65;53.37;102410.31;5034722;28;20049;-53
2023/01/03 00:36:35;;;;;;;14.00;9.95;;;;;;;19.66;53.64;102413.84;5034828;28;20128;-52
2023/01/03 00:39:04;;;;;;;18.00;11.00;;;;;;;19.65;52.94;102413.00;5034668;28;20057;-52
2023/01/03 00:41:31;;;;;;;13.90;10.88;;;;;;;19.64;53.19;102402.31;5034237;28;20056;-54
2023/01/03 00:43:59;;;;;;;15.60;10.90;;;;;;;19.65;53.15;102406.75;5034901;28;20387;-51
2023/01/03 00:46:26;;;;;;;14.63;10.85;;;;;;;19.65;53.08;102420.19;5034555;28;20049;-56
2023/01/03 00:48:54;;;;;;;15.68;10.43;;;;;;;19.65;53.57;102414.81;5034475;28;20387;-56
2023/01/03 00:51:25;;;;;;;17.70;11.30;;;;;;;19.65;53.57;102413.00;5034490;28;20589;-56
2023/01/03 00:53:55;;;;;;;13.38;10.00;;;;;;;19.66;53.69;102420.09;5034758;28;20061;-56
2023/01/03 00:56:26;;;;;;;15.57;11.75;;;;;;;19.66;53.35;102417.41;5033650;28;20049;-56
2023/01/03 00:58:53;;;;;;;12.73;10.10;;;;;;;19.65;53.38;102413.00;5021826;28;20050;-56
2023/01/03 01:01:20;;;;;;;13.77;10.05;;;;;;;19.65;53.38;102415.69;5015490;28;20034;-56
2023/01/03 01:03:51;;;;;;;15.65;10.68;;;;;;;19.66;53.34;102414.72;5030815;28;20125;-56
2023/01/03 01:06:27;;;;;;;13.93;9.85;;;;;;;19.64;53.42;102413.94;5034199;28;20052;-56
2023/01/03 01:08:58;;;;;;;14.63;9.73;;;;;;;19.64;53.41;102413.94;5034381;28;20356;-55
2023/01/03 01:11:27;;;;;;;13.75;10.65;;;;;;;19.65;53.24;102417.50;5034037;28;20044;-56
2023/01/03 01:13:55;;;;;;;13.95;9.82;;;;;;;19.64;53.37;102415.75;5033973;28;20037;-56
2023/01/03 01:16:30;;;;;;;18.52;10.45;;;;;;;19.63;53.36;102417.59;5034797;28;20057;-56
2023/01/03 01:18:59;;;;;;;11.93;9.43;;;;;;;19.64;53.37;102418.44;5033958;28;20049;-56
2023/01/03 01:21:29;;;;;;;10.38;8.35;;;;;;;19.63;53.27;102428.31;5033656;28;20048;-56
2023/01/03 01:23:58;;;;;;;12.18;9.20;;;;;;;19.63;53.50;102422.09;5033904;28;20395;-56
2023/01/03 01:26:26;;;;;;;11.85;9.02;;;;;;;19.62;53.28;102418.56;5033595;28;20052;-56
2023/01/03 01:28:54;;;;;;;14.18;9.30;;;;;;;19.62;53.43;102421.25;5033665;28;20056;-55
2023/01/03 01:31:24;;;;;;;13.30;10.20;;;;;;;19.62;53.56;102418.56;5033695;28;20052;-57
2023/01/03 01:33:53;;;;;;;14.45;9.60;;;;;;;19.63;53.37;102419.41;5034126;28;20403;-54
2023/01/03 01:36:24;;;;;;;12.05;8.55;;;;;;;19.63;53.44;102430.16;5033595;28;20060;-56
2023/01/03 01:38:55;;;;;;;13.63;8.85;;;;;;;19.63;53.38;102424.78;5033759;28;20058;-56
2023/01/03 01:44:50;;;;;;;11.65;8.88;;;;;;;19.62;53.62;102426.59;5033871;28;20054;-56
2023/01/03 01:47:50;;;;;;;13.15;9.38;;;;;;;19.62;53.65;102420.38;5033475;28;20045;-55
2023/01/03 01:50:32;;;;;;;11.95;9.00;;;;;;;19.62;53.45;102425.75;5033415;28;20052;-56
2023/01/03 01:53:11;;;;;;;13.68;10.05;;;;;;;19.62;53.34;102417.69;5033493;28;20053;-55
2023/01/03 01:55:45;;;;;;;14.88;9.88;;;;;;;19.60;53.45;102428.47;5033208;28;20052;-56
2023/01/03 01:58:14;;;;;;;12.18;9.45;;;;;;;19.61;53.56;102418.63;5033609;28;20053;-56
2023/01/03 02:00:43;;;;;;;10.82;8.75;;;;;;;19.61;53.76;102424.00;5033270;28;20057;-56
2023/01/03 02:03:11;;;;;;;13.98;9.88;;;;;;;19.60;53.64;102425.78;5017237;28;20037;-56
2023/01/03 02:05:44;;;;;;;12.05;9.35;;;;;;;19.60;53.56;102423.09;5013429;28;20372;-56
2023/01/03 02:08:12;;;;;;;12.25;9.20;;;;;;;19.60;53.37;102419.56;5012782;28;20510;-54
2023/01/03 02:11:06;;;;;;;10.55;8.57;;;;;;;19.61;53.46;102418.63;5013437;28;20050;-55
2023/01/03 02:14:11;;;;;;;12.75;9.73;;;;;;;19.60;53.51;102417.72;5013206;28;20046;-57
2023/01/03 02:16:50;;;;;;;11.57;9.15;;;;;;;19.59;53.52;102410.63;5013274;28;20050;-56
2023/01/03 02:19:24;;;;;;;15.07;9.95;;;;;;;19.59;53.56;102405.25;5013332;28;20053;-55
2023/01/03 02:22:13;;;;;;;11.75;9.32;;;;;;;19.58;53.68;102403.53;5013542;28;20042;-55
2023/01/03 02:24:55;;;;;;;12.48;9.75;;;;;;;19.60;53.53;102406.13;5013363;28;20053;-55
2023/01/03 02:27:28;;;;;;;13.48;9.60;;;;;;;19.59;53.61;102397.22;5013394;28;20058;-56
2023/01/03 02:30:53;;;;;;;11.23;8.93;;;;;;;19.59;53.56;102399.91;5013599;28;20061;-56
2023/01/03 02:33:44;;;;;;;12.90;8.88;;;;;;;19.59;53.64;102399.91;4995099;28;20049;-55
2023/01/03 02:36:12;;;;;;;10.68;9.15;;;;;;;19.59;53.70;102396.34;5010792;28;20046;-57
2023/01/03 02:39:00;;;;;;;11.98;9.60;;;;;;;19.58;53.64;102398.19;5010814;28;20105;-56
2023/01/03 02:41:44;;;;;;;13.73;10.05;;;;;;;19.59;53.64;102393.66;5011155;28;20050;-56
2023/01/03 02:44:22;;;;;;;12.70;9.05;;;;;;;19.59;53.54;102397.22;5010759;28;20058;-56
2023/01/03 02:47:04;;;;;;;12.82;10.07;;;;;;;19.58;53.58;102395.50;5010733;28;20597;-55
2023/01/03 02:49:50;;;;;;;11.97;9.43;;;;;;;19.58;53.88;102384.75;5011254;28;20053;-56
2023/01/03 02:52:25;;;;;;;11.32;8.80;;;;;;;19.58;53.84;102376.69;5010795;28;20054;-56
2023/01/03 02:54:58;;;;;;;12.52;9.80;;;;;;;19.59;53.99;102380.22;5010841;28;20050;-55
2023/01/03 02:57:33;;;;;;;10.63;8.65;;;;;;;19.59;53.74;102374.84;5011088;28;20381;-56
2023/01/03 03:00:08;;;;;;;13.18;10.02;;;;;;;19.58;53.62;102368.63;5010841;28;20050;-55
2023/01/03 03:02:39;;;;;;;12.90;9.63;;;;;;;19.58;53.81;102376.69;5009484;28;20046;-56
2023/01/03 03:05:14;;;;;;;12.77;9.60;;;;;;;19.57;53.81;102364.22;5011592;28;20057;-56
2023/01/03 03:07:41;;;;;;;12.45;9.85;;;;;;;19.58;53.80;102367.75;5012915;28;20046;-54
2023/01/03 03:13:28;;;;;;;14.07;10.55;;;;;;;19.57;53.96;102372.28;5012880;28;20391;-56
2023/01/03 03:16:14;;;;;;;13.10;9.45;;;;;;;19.57;53.86;102374.06;5010446;28;20054;-55
2023/01/03 03:18:58;;;;;;;14.10;9.98;;;;;;;19.58;54.00;102373.13;5013098;28;20053;-56
2023/01/03 03:30:04;;;;;;;12.73;10.10;;;;;;;19.57;54.20;102388.41;5016228;28;20506;-55
2023/01/03 03:32:34;;;;;;;13.25;10.52;;;;;;;19.57;53.98;102391.09;5016532;28;20506;-56
2023/01/03 03:35:04;;;;;;;12.75;9.90;;;;;;;19.57;53.85;102391.09;5016003;28;20050;-55
2023/01/03 03:37:36;;;;;;;11.88;9.93;;;;;;;19.57;53.85;102388.41;5016497;28;20050;-54
2023/01/03 03:46:05;;;;;;;13.02;10.35;;;;;;;19.56;53.93;102378.59;5015816;28;20050;-63
2023/01/03 03:51:36;;;;;;;12.70;10.50;;;;;;;19.56;53.88;102383.97;5035609;28;20050;-63
2023/01/03 03:54:10;;;;;;;13.20;10.05;;;;;;;19.55;53.98;102382.25;5035646;28;20487;-63
2023/01/03 03:56:41;;;;;;;12.88;9.82;;;;;;;19.56;54.00;102375.91;5035674;28;20053;-63
2023/01/03 03:59:10;;;;;;;12.93;9.73;;;;;;;19.56;53.94;102378.59;5035285;28;20050;-63
2023/01/03 04:01:39;;;;;;;12.98;9.52;;;;;;;19.56;53.96;102378.59;5050471;28;20061;-63
2023/01/03 04:04:17;;;;;;;14.10;9.75;;;;;;;19.56;53.87;102377.72;5028076;28;20038;-63
2023/01/03 04:06:49;;;;;;;12.20;9.93;;;;;;;19.56;53.95;102375.03;5015563;28;20380;-62
2023/01/03 04:09:17;;;;;;;14.27;11.20;;;;;;;19.56;53.92;102370.53;5015569;28;20061;-63
2023/01/03 04:11:44;;;;;;;12.05;8.82;;;;;;;19.57;54.01;102368.69;5015502;28;20061;-62
2023/01/03 04:14:12;;;;;;;11.95;9.80;;;;;;;19.56;53.96;102370.53;5015811;28;20045;-57
2023/01/03 04:16:39;;;;;;;13.07;9.70;;;;;;;19.56;54.04;102366.97;5015283;28;20057;-56
2023/01/03 04:19:07;;;;;;;14.40;10.60;;;;;;;19.54;53.99;102361.72;5015050;28;20053;-56
2023/01/03 04:21:35;;;;;;;12.57;9.27;;;;;;;19.56;54.02;102373.22;5015361;28;20054;-56
2023/01/03 04:24:04;;;;;;;12.40;9.63;;;;;;;19.57;53.81;102368.69;5014938;28;20045;-55
2023/01/03 04:26:31;;;;;;;11.25;9.48;;;;;;;19.56;53.94;102361.59;5015188;28;20053;-55
2023/01/03 04:28:58;;;;;;;13.30;9.77;;;;;;;19.55;54.09;102371.50;5015531;28;20479;-55
2023/01/03 04:31:26;;;;;;;11.30;9.02;;;;;;;19.57;54.05;102379.44;5014204;28;20053;-55
2023/01/03 04:33:53;;;;;;;16.17;9.93;;;;;;;19.55;54.02;102376.88;5015056;28;20046;-56
2023/01/03 04:36:20;;;;;;;12.25;10.05;;;;;;;19.56;53.92;102372.34;5015376;28;20045;-55
2023/01/03 04:38:48;;;;;;;12.40;10.30;;;;;;;19.57;53.93;102376.75;5014975;28;20046;-54
2023/01/03 04:41:15;;;;;;;11.90;9.48;;;;;;;19.55;54.06;102371.50;5014642;28;20050;-56
2023/01/03 04:44:01;;;;;;;11.05;9.18;;;;;;;19.56;54.06;102375.03;5014770;28;20048;-56
2023/01/03 04:46:37;;;;;;;11.30;9.25;;;;;;;19.56;54.09;102377.72;5013934;28;20050;-55
2023/01/03 04:49:07;;;;;;;12.23;9.77;;;;;;;19.55;54.21;102376.88;5014516;28;20061;-54
2023/01/03 04:51:35;;;;;;;11.38;9.00;;;;;;;19.55;54.12;102382.25;5014498;28;20598;-56
2023/01/03 04:54:04;;;;;;;11.52;8.95;;;;;;;19.55;54.10;102381.38;5015174;28;20403;-56
2023/01/03 04:56:34;;;;;;;11.02;9.02;;;;;;;19.55;54.06;102382.25;5014504;28;20046;-56
2023/01/03 04:59:02;;;;;;;14.55;10.27;;;;;;;19.54;54.18;102379.66;5028456;28;20057;-56
2023/01/03 05:01:29;;;;;;;10.88;8.52;;;;;;;19.55;53.93;102381.38;5033941;28;20052;-56
2023/01/03 05:03:59;;;;;;;11.45;8.93;;;;;;;19.55;54.23;102382.25;5033774;28;20041;-56
2023/01/03 05:06:27;;;;;;;11.10;9.25;;;;;;;19.54;54.33;102388.56;5013261;28;20038;-55
2023/01/03 05:08:55;;;;;;;11.55;8.73;;;;;;;19.55;54.28;102387.63;5014693;28;20050;-55
2023/01/03 05:11:22;;;;;;;10.38;8.45;;;;;;;19.54;54.22;102391.25;5014343;28;20388;-55
2023/01/03 05:13:50;;;;;;;11.27;8.73;;;;;;;19.54;54.34;102385.91;5014289;28;20048;-55
2023/01/03 05:16:17;;;;;;;13.20;9.07;;;;;;;19.54;54.26;102382.34;5014330;28;20415;-56
2023/01/03 05:18:46;;;;;;;11.15;8.80;;;;;;;19.54;54.22;102387.72;5014424;28;20050;-56
2023/01/03 05:26:50;;;;;;;10.50;8.80;;;;;;;19.52;54.10;102393.16;5014505;28;20048;-56
2023/01/03 05:29:19;;;;;;;10.02;8.85;;;;;;;19.54;54.11;102402.00;5014105;28;20049;-56
2023/01/03 05:31:47;;;;;;;10.57;8.50;;;;;;;19.52;54.13;102388.66;5013871;28;20049;-56
2023/01/03 05:34:14;;;;;;;10.57;9.07;;;;;;;19.54;54.24;102406.53;5014269;28;20056;-55
2023/01/03 05:36:42;;;;;;;10.23;8.93;;;;;;;19.53;54.20;102405.66;5014199;28;20050;-56
2023/01/03 05:39:09;;;;;;;11.65;8.52;;;;;;;19.53;54.19;102400.28;5013920;28;20050;-55
2023/01/03 05:44:24;;;;;;;17.35;9.07;;;;;;;19.54;54.12;102411.91;5014031;28;20482;-55
2023/01/03 05:46:51;;;;;;;10.85;8.65;;;;;;;19.53;54.24;102400.28;5012447;28;20503;-55
2023/01/03 05:49:18;;;;;;;10.48;8.32;;;;;;;19.53;54.36;102408.34;5027898;28;20045;-54
2023/01/03 05:51:46;;;;;;;11.85;8.38;;;;;;;19.54;54.46;102412.75;5033306;28;20056;-55
2023/01/03 05:54:14;;;;;;;10.00;8.50;;;;;;;19.54;54.27;102418.13;5033811;28;20041;-55
2023/01/03 05:56:42;;;;;;;12.02;8.00;;;;;;;19.52;54.33;102415.53;5033317;28;20372;-55
2023/01/03 05:59:09;;;;;;;9.57;8.55;;;;;;;19.54;54.45;102414.59;5033108;28;20045;-55
2023/01/03 06:01:37;;;;;;;11.02;8.63;;;;;;;19.53;54.41;102413.72;5033669;28;20049;-55
2023/01/03 06:04:05;;;;;;;11.13;8.25;;;;;;;19.54;54.30;102420.81;5033505;28;20142;-55
2023/01/03 06:06:33;;;;;;;9.68;7.75;;;;;;;19.54;54.43;102415.44;5022777;28;20049;-56
2023/01/03 06:09:00;;;;;;;11.15;8.68;;;;;;;19.54;54.44;102401.16;5012956;28;20038;-55
2023/01/03 06:11:27;;;;;;;11.23;7.95;;;;;;;19.54;54.44;102409.22;5013907;28;20042;-53
2023/01/03 06:13:55;;;;;;;10.13;7.75;;;;;;;19.53;54.28;102416.41;5013349;28;20053;-55
2023/01/03 06:19:14;;;;;;;9.27;8.07;;;;;;;19.54;54.29;102425.31;5021066;28;20057;-53
2023/01/03 06:21:41;;;;;;;11.75;8.50;;;;;;;19.52;54.27;102436.16;5013702;28;20057;-54
2023/01/03 06:24:09;;;;;;;10.82;8.13;;;;;;;19.52;54.26;102442.38;5013331;28;20046;-54
2023/01/03 06:26:36;;;;;;;9.82;7.53;;;;;;;19.52;54.31;102439.69;5013184;28;20060;-52
2023/01/03 06:29:04;;;;;;;8.80;7.80;;;;;;;19.54;54.49;102447.69;5013359;28;20053;-55
2023/01/03 06:31:32;;;;;;;8.82;7.55;;;;;;;19.52;54.41;102442.38;5012726;28;20042;-54
2023/01/03 06:33:59;;;;;;;9.25;7.70;;;;;;;19.52;54.17;102428.94;5012854;28;20404;-55
2023/01/03 06:36:26;;;;;;;8.82;7.43;;;;;;;19.54;54.17;102433.38;5013653;28;20061;-56
2023/01/03 06:38:54;;;;;;;9.27;7.65;;;;;;;19.52;54.31;102428.09;5013281;28;20498;-55
2023/01/03 06:41:21;;;;;;;8.20;7.28;;;;;;;19.52;54.35;102428.94;5013015;28;20062;-55
2023/01/03 06:43:49;;;;;;;8.68;7.60;;;;;;;19.52;54.30;102425.41;5013319;28;20042;-56
2023/01/03 06:54:36;;;;;;;9.32;7.28;;;;;;;19.52;54.39;102433.47;5015037;28;20353;-55
2023/01/03 06:57:04;;;;;;;7.97;6.30;;;;;;;19.52;54.41;102433.47;5016653;28;20053;-56
2023/01/03 06:59:31;;;;;;;8.48;7.00;;;;;;;19.53;54.47;102432.53;5034567;28;20049;-55
2023/01/03 07:01:59;;;;;;;9.32;7.10;;;;;;;19.51;54.30;102437.13;5036395;28;20399;-56
2023/01/03 07:04:26;;;;;;;10.70;7.03;;;;;;;19.51;54.36;102437.13;5036386;28;20046;-56
2023/01/03 07:06:54;;;;;;;8.90;7.53;;;;;;;19.51;54.22;102442.47;5029682;28;20053;-56
2023/01/03 07:09:21;;;;;;;11.00;8.38;;;;;;;19.51;54.36;102443.34;5015844;28;20117;-56
2023/01/03 07:11:49;;;;;;;9.68;7.72;;;;;;;19.50;54.25;102438.94;5016949;28;20049;-55
2023/01/03 07:14:17;;;;;;;8.80;7.40;;;;;;;19.51;54.30;102437.97;5016485;28;20049;-55
2023/01/03 07:16:47;;;;;;;9.40;7.50;;;;;;;19.51;54.21;102439.81;5016352;28;20045;-55
2023/01/03 07:19:16;;;;;;;8.95;7.07;;;;;;;19.51;54.41;102440.66;5016189;28;20053;-55
2023/01/03 07:21:45;;;;;;;9.30;7.05;;;;;;;19.52;54.33;102457.63;5016824;28;20053;-54
2023/01/03 07:24:13;;;;;;;8.43;6.93;;;;;;;19.51;54.28;102456.78;5016393;28;20038;-55
2023/01/03 07:26:41;;;;;;;8.80;7.30;;;;;;;19.51;54.16;102455.91;5016367;28;20045;-56
2023/01/03 07:29:09;;;;;;;7.85;6.50;;;;;;;19.51;54.28;102459.47;5016857;28;20054;-56
2023/01/03 07:31:40;;;;;;;7.95;6.75;;;;;;;19.51;54.28;102469.34;5016635;28;20059;-55
2023/01/03 07:34:08;;;;;;;8.77;7.22;;;;;;;19.51;54.32;102467.53;5016156;28;20048;-55
2023/01/03 07:36:36;;;;;;;8.07;6.13;;;;;;;19.51;54.26;102462.16;5016251;28;20050;-56
2023/01/03 07:39:03;;;;;;;8.57;6.95;;;;;;;19.52;54.41;102457.63;5016490;28;20058;-56
2023/01/03 07:44:17;;;;;;;9.15;7.13;;;;;;;19.51;54.30;102466.66;5016214;28;20054;-56
2023/01/03 07:46:45;;;;;;;7.78;6.40;;;;;;;19.51;54.19;102455.91;5016347;28;20053;-55
2023/01/03 07:49:12;;;;;;;8.68;6.90;;;;;;;19.51;54.37;102463.97;5026050;28;20045;-55
2023/01/03 07:51:39;;;;;;;9.70;7.03;;;;;;;19.51;54.27;102463.97;5035702;28;20045;-55
2023/01/03 07:54:07;;;;;;;8.77;7.10;;;;;;;19.51;54.32;102464.84;5035701;28;20041;-55
2023/01/03 07:56:34;;;;;;;7.85;6.47;;;;;;;19.51;54.37;102458.59;5035779;28;20046;-62
2023/01/03 07:59:01;;;;;;;8.10;5.93;;;;;;;19.50;54.39;102463.13;5035441;28;20045;-63
2023/01/03 08:01:29;;;;;;;7.82;5.88;;;;;;;19.50;54.37;102460.44;5035880;28;20049;-63
2023/01/03 08:03:57;;;;;;;9.50;6.93;;;;;;;19.50;54.21;102470.31;5035475;28;20391;-63
2023/01/03 08:06:24;;;;;;;8.20;6.55;;;;;;;19.50;54.41;102465.78;5033615;28;20387;-63
2023/01/03 08:14:24;;;;;;;6.82;5.60;;;;;;;19.51;54.48;102474.72;5015291;28;20049;-63
2023/01/03 08:16:54;;;;;;;8.20;6.05;;;;;;;19.51;54.55;102482.78;5015363;28;20057;-63
2023/01/03 08:19:23;;;;;;;9.60;6.28;;;;;;;19.50;54.50;102486.44;5015767;28;20464;-63
2023/01/03 08:21:50;;;;;;;6.80;5.78;;;;;;;19.50;54.61;102492.66;5015291;28;20053;-63
2023/01/03 08:24:18;;;;;;;7.70;6.30;;;;;;;19.50;54.64;102497.19;5014793;28;20068;-63
2023/01/03 08:26:45;;;;;;;7.15;5.72;;;;;;;19.50;54.66;102502.53;5015776;28;20049;-63
2023/01/03 08:29:13;;;;;;;7.45;5.90;;;;;;;19.51;54.83;102498.91;5015228;28;20046;-63
2023/01/03 08:31:48;;;;;;;7.80;6.07;;;;;;;19.50;54.74;102497.19;5015199;28;20452;-63
2023/01/03 08:34:17;;;;;;;8.45;6.38;;;;;;;19.50;54.51;102492.66;5015479;28;20053;-63
2023/01/03 08:37:00;;;;;;;7.40;5.68;;;;;;;19.50;54.52;102492.66;5015091;28;20045;-63
2023/01/03 08:39:41;;;;;;;7.57;6.15;;;;;;;19.50;54.82;102505.22;5014815;28;20057;-62
2023/01/03 08:42:14;;;;;;;7.90;6.07;;;;;;;19.50;54.56;102502.53;5013632;28;20058;-62
2023/01/03 08:44:43;;;;;;;8.02;5.70;;;;;;;19.50;54.60;102495.34;5014486;28;20106;-62
2023/01/03 08:47:14;;;;;;;8.23;5.70;;;;;;;19.50;54.57;102497.19;5014758;28;20053;-61
2023/01/03 08:49:41;;;;;;;7.60;5.70;;;;;;;19.50;54.39;102502.53;5015463;28;20049;-61
2023/01/03 08:52:09;;;;;;;9.05;6.10;;;;;;;19.49;54.37;102504.38;5015038;28;20480;-63
2023/01/03 08:54:38;;;;;;;6.70;5.28;;;;;;;19.50;54.64;102498.03;5014533;28;20393;-63
2023/01/03 08:57:05;;;;;;;7.90;5.88;;;;;;;19.51;54.61;102505.13;5014940;28;20519;-63
2023/01/03 08:59:33;;;;;;;8.38;5.95;;;;;;;19.51;54.82;102504.25;5030977;28;20050;-61
2023/01/03 09:02:00;;;;;;;10.63;8.07;;;;;;;19.46;53.41;102496.50;5034263;28;20041;-58
2023/01/03 09:04:28;;;;;;;10.63;7.88;;;;;;;19.39;53.21;102499.63;5034294;28;20475;-61
2023/01/03 09:06:55;;;;;;;12.32;7.60;;;;;;;19.36;53.63;102494.44;5034165;28;20478;-61
2023/01/03 09:09:23;;;;;;;10.77;7.90;;;;;;;19.35;53.77;102500.78;5022673;28;20038;-61
2023/01/03 09:11:51;;;;;;;14.45;9.98;;;;;;;19.34;52.63;102504.41;5014007;28;20045;-61
2023/01/03 09:14:18;;;;;;;11.75;8.48;;;;;;;19.35;53.17;102509.69;5014269;28;20071;-61
2023/01/03 09:16:46;;;;;;;10.48;8.30;;;;;;;19.35;52.93;102506.13;5012744;28;20057;-61
2023/01/03 09:19:16;;;;;;;11.88;8.65;;;;;;;19.35;52.35;102516.88;5014714;28;20408;-61
2023/01/03 09:21:43;;;;;;;11.95;8.30;;;;;;;19.35;52.87;102514.19;5013986;28;20507;-61
2023/01/03 09:24:13;;;;;;;12.02;9.80;;;;;;;19.36;52.34;102515.91;5013960;28;20048;-61
2023/01/03 09:26:40;;;;;;;14.68;10.18;;;;;;;19.35;52.02;102508.81;5013939;28;20044;-63
2023/01/03 09:29:13;;;;;;;12.30;9.20;;;;;;;19.34;52.01;102510.66;5012927;28;20046;-65
2023/01/03 09:31:55;;;;;;;15.27;11.15;;;;;;;19.33;51.07;102517.00;5010959;28;20085;-64
2023/01/03 09:34:22;;;;;;;10.70;8.48;;;;;;;19.33;51.60;102522.34;5014070;28;20053;-65
2023/01/03 09:36:49;;;;;;;12.05;8.30;;;;;;;19.33;52.29;102521.50;5013818;28;20045;-63
2023/01/03 09:39:17;;;;;;;11.57;7.63;;;;;;;19.36;53.02;102521.28;5025215;28;20045;-63
2023/01/03 09:43:11;;;;;;;10.10;7.88;;;;;;;19.36;52.88;102516.78;5032830;28;20050;-63
2023/01/03 09:44:32;;;;;;;11.88;7.38;;;;;;;19.39;53.24;102521.13;5033385;28;20049;-63
2023/01/03 09:47:00;;;;;;;11.00;7.63;;;;;;;19.41;53.01;102513.84;5033908;28;20045;-63
2023/01/03 09:49:28;;;;;;;7.95;6.20;;;;;;;19.41;53.12;102505.78;5033847;28;20042;-63
2023/01/03 10:03:44;;;;;;;9.00;5.55;;;;;;;19.43;53.01;102501.19;5033289;28;20053;-63
2023/01/03 10:06:49;;;;;;;9.00;5.63;;;;;;;19.43;53.00;102507.41;5033058;28;20049;-63
2023/01/03 10:09:34;;;;;;;7.57;5.35;;;;;;;19.44;53.15;102492.16;5033123;28;20042;-63
2023/01/03 10:12:39;;;;;;;8.55;5.07;;;;;;;19.43;53.18;102504.72;5033297;28;20053;-63
2023/01/03 10:15:21;;;;;;;7.45;4.90;;;;;;;19.42;53.25;102494.94;5033072;28;20041;-63
2023/01/03 10:18:12;;;;;;;7.75;5.93;;;;;;;19.43;53.16;102491.28;5033104;28;20052;-63
2023/01/03 10:20:43;;;;;;;7.38;5.45;;;;;;;19.43;53.16;102490.44;5032851;28;20050;-63
2023/01/03 10:23:11;;;;;;;7.43;5.45;;;;;;;19.42;53.00;102484.19;5033031;28;20049;-63
2023/01/03 10:25:41;;;;;;;7.80;5.43;;;;;;;19.43;53.08;102477.00;5032821;28;20503;-63
2023/01/03 10:28:20;;;;;;;7.53;5.47;;;;;;;19.43;53.09;102479.69;5031829;28;20523;-63
2023/01/03 10:31:09;;;;;;;10.13;5.57;;;;;;;19.42;53.17;102483.34;5037318;28;20060;-63
2023/01/03 10:33:44;;;;;;;7.35;5.18;;;;;;;19.42;53.08;102475.28;5036997;28;20049;-63
2023/01/03 10:36:13;;;;;;;8.23;5.60;;;;;;;19.42;52.98;102468.09;5036809;28;20045;-63
2023/01/03 10:38:41;;;;;;;8.85;5.55;;;;;;;19.42;52.97;102475.28;5036887;28;20045;-63
2023/01/03 10:41:30;;;;;;;6.32;4.85;;;;;;;19.42;53.22;102461.84;5035410;28;20061;-63
2023/01/03 10:44:02;;;;;;;6.22;4.80;;;;;;;19.40;53.03;102451.19;5036902;28;20487;-63
2023/01/03 10:46:30;;;;;;;7.30;5.18;;;;;;;19.41;53.13;102461.00;5036785;28;20046;-63
2023/01/03 10:49:22;;;;;;;8.57;5.00;;;;;;;19.40;52.94;102455.69;5036807;28;20049;-63
2023/01/03 10:52:09;;;;;;;7.05;5.25;;;;;;;19.40;53.01;102445.81;5036404;28;20061;-63
2023/01/03 10:54:40;;;;;;;6.72;5.05;;;;;;;19.40;53.01;102453.88;5036646;28;20053;-63
2023/01/03 10:57:27;;;;;;;5.22;4.35;;;;;;;19.40;53.00;102451.19;5036544;28;20049;-63
2023/01/03 10:59:54;;;;;;;6.85;4.95;;;;;;;19.40;52.98;102453.88;5036486;28;20046;-63
2023/01/03 11:02:22;;;;;;;6.68;4.65;;;;;;;19.40;52.89;102456.56;5036433;28;20415;-63
2023/01/03 11:05:11;;;;;;;6.32;4.95;;;;;;;19.40;53.02;102447.63;5036350;28;20049;-63
2023/01/03 11:07:43;;;;;;;6.53;4.97;;;;;;;19.40;52.95;102436.91;5036365;28;20056;-63
2023/01/03 11:10:17;;;;;;;6.97;5.13;;;;;;;19.40;52.88;102442.25;5036389;28;20050;-63
2023/01/03 11:12:45;;;;;;;6.88;5.13;;;;;;;19.40;53.02;102437.75;5036272;28;20053;-63
2023/01/03 11:15:19;;;;;;;8.88;5.13;;;;;;;19.40;52.91;102444.94;5036221;28;20049;-63
2023/01/03 11:17:52;;;;;;;5.43;4.38;;;;;;;19.40;53.06;102436.91;5036023;28;20049;-63
2023/01/03 11:20:20;;;;;;;;;;;;;;;19.40;53.05;102435.06;5036512;28;20049;-63
2023/01/03 11:23:02;;;;;;;8.02;5.00;;;;;;;19.40;52.89;102439.59;5036100;28;20295;-63
2023/01/03 11:25:46;;;;;;;5.75;4.75;;;;;;;19.39;52.98;102430.66;5036020;28;20049;-63
2023/01/03 11:28:20;;;;;;;6.55;4.85;;;;;;;19.39;53.08;102425.28;5036030;28;20049;-63
2023/01/03 11:31:13;;;;;;;;;;;;;;;19.40;52.94;102431.53;5036530;28;20064;-63
2023/01/03 11:34:07;;;;;;;6.63;4.57;;;;;;;19.40;52.80;102427.00;5034816;28;19927;-63
2023/01/03 11:36:55;;;;;;;6.57;5.43;;;;;;;19.39;52.93;102421.75;5036060;28;20049;-63
2023/01/03 11:39:25;;;;;;;5.88;4.63;;;;;;;19.39;52.87;102421.75;5035572;28;20052;-63
2023/01/03 11:42:02;;;;;;;5.75;5.07;;;;;;;19.39;52.94;102422.59;5035587;28;20041;-63
2023/01/03 11:44:44;;;;;;;7.20;5.40;;;;;;;19.39;52.92;102424.44;5035750;28;20068;-63
2023/01/03 11:47:14;;;;;;;7.65;5.03;;;;;;;19.39;52.94;102425.28;5035516;28;20041;-63
2023/01/03 11:49:56;;;;;;;6.07;4.90;;;;;;;19.37;52.77;102421.00;5035621;28;20045;-63
2023/01/03 11:52:33;;;;;;;7.10;4.95;;;;;;;19.37;52.88;102410.25;5035600;28;20041;-63
2023/01/03 11:55:19;;;;;;;7.45;5.50;;;;;;;19.36;52.72;102417.41;5035459;28;20483;-63
2023/01/03 11:58:04;;;;;;;6.82;4.53;;;;;;;19.37;52.86;102423.69;5035362;28;20052;-63
2023/01/03 12:00:40;;;;;;;7.75;5.72;;;;;;;19.37;52.82;102416.47;5035519;28;20399;-63
2023/01/03 12:03:20;;;;;;;6.88;4.90;;;;;;;19.36;52.77;102414.72;5035288;28;20048;-63
2023/01/03 12:06:03;;;;;;;7.88;5.22;;;;;;;19.37;52.71;102410.25;5035307;28;20491;-63
2023/01/03 12:09:00;;;;;;;6.00;4.97;;;;;;;19.35;52.78;102396.91;5035302;28;20479;-63
2023/01/03 12:11:39;;;;;;;5.60;4.47;;;;;;;19.37;52.75;102399.50;5035228;28;20042;-63
2023/01/03 12:14:23;;;;;;;6.35;5.05;;;;;;;19.37;52.75;102399.50;5035161;28;20052;-63
2023/01/03 12:16:59;;;;;;;6.95;5.40;;;;;;;19.36;52.71;102393.25;5035024;28;20045;-63
2023/01/03 12:19:42;;;;;;;7.80;5.30;;;;;;;19.35;52.79;102396.03;5034106;28;20060;-63
2023/01/03 12:22:29;;;;;;;7.40;5.10;;;;;;;19.36;52.76;102398.63;5035050;28;20518;-63
2023/01/03 12:25:20;;;;;;;6.95;5.05;;;;;;;19.36;52.60;102400.44;5033936;28;20080;-63
2023/01/03 12:28:09;;;;;;;6.63;5.05;;;;;;;19.36;52.84;102400.44;5034251;28;20065;-63
2023/01/03 12:30:47;;;;;;;6.75;5.38;;;;;;;19.35;52.69;102396.91;5034813;28;20483;-63
2023/01/03 12:33:34;;;;;;;7.28;5.20;;;;;;;19.36;52.64;102389.69;5034839;28;20057;-63
2023/01/03 12:36:18;;;;;;;9.90;5.75;;;;;;;19.36;52.77;102395.94;5034754;28;20413;-63
2023/01/03 12:38:54;;;;;;;;;;;;;;;19.35;52.78;102391.53;5035154;28;20056;-63
2023/01/03 12:41:33;;;;;;;6.25;4.88;;;;;;;19.36;52.71;102395.06;5034519;28;20259;-63
2023/01/03 12:44:10;;;;;;;6.72;5.00;;;;;;;19.35;52.83;102388.84;5034571;28;20045;-63
2023/01/03 12:46:44;;;;;;;6.90;4.90;;;;;;;19.36;52.83;102390.56;5034367;28;20045;-63
2023/01/03 12:49:41;;;;;;;7.53;5.32;;;;;;;19.35;52.67;102382.63;5034485;28;20048;-63
2023/01/03 12:52:15;;;;;;;5.50;4.53;;;;;;;19.35;52.67;102385.28;5033433;28;20412;-63